createdAt,value
2019-05-25T00:00:57.863Z,83.30
2019-05-25T00:03:27.247Z,83.50
2019-05-25T00:05:56.634Z,83.60
2019-05-25T00:08:26.026Z,83.80
2019-05-25T00:10:55.377Z,83.90
2019-05-25T00:13:24.757Z,84.90
2019-05-25T00:15:54.144Z,83.90
2019-05-25T00:18:23.527Z,84.10
2019-05-25T00:20:52.923Z,84.20
2019-05-25T00:23:22.287Z,84.30
2019-05-25T00:25:52.153Z,84.60
2019-05-25T00:28:21.534Z,84.80
2019-05-25T00:30:50.989Z,84.80
2019-05-25T00:33:20.438Z,84.80
2019-05-25T00:35:49.861Z,84.80
2019-05-25T00:38:19.321Z,85.00
2019-05-25T00:40:48.705Z,85.30
2019-05-25T00:43:18.081Z,85.40
2019-05-25T00:45:47.463Z,85.50
2019-05-25T00:48:16.821Z,85.60
2019-05-25T00:50:46.210Z,85.60
2019-05-25T00:53:15.617Z,85.60
2019-05-25T00:55:45.372Z,85.90
2019-05-25T00:58:14.678Z,85.90
2019-05-25T01:00:44.041Z,86.00
2019-05-25T01:03:13.422Z,86.00
2019-05-25T01:05:42.821Z,86.00
2019-05-25T01:08:12.178Z,85.90
2019-05-25T01:10:41.566Z,85.80
2019-05-25T01:13:10.956Z,85.80
2019-05-25T01:15:40.309Z,85.90
2019-05-25T01:18:09.697Z,86.00
2019-05-25T01:20:39.082Z,85.90
2019-05-25T01:23:08.444Z,86.00
2019-05-25T01:25:37.828Z,86.10
2019-05-25T01:28:07.209Z,86.30
2019-05-25T01:30:36.575Z,86.40
2019-05-25T01:33:06.017Z,86.50
2019-05-25T01:35:35.405Z,86.40
2019-05-25T01:38:04.764Z,86.30
2019-05-25T01:40:34.154Z,86.50
2019-05-25T01:43:03.533Z,86.90
2019-05-25T01:45:32.891Z,86.50
2019-05-25T01:48:02.270Z,86.50
2019-05-25T01:50:31.663Z,86.40
2019-05-25T01:53:01.038Z,86.60
2019-05-25T01:55:30.417Z,86.60
2019-05-25T01:57:59.770Z,86.80
2019-05-25T02:00:29.151Z,87.10
2019-05-25T02:02:58.619Z,87.20
2019-05-25T02:05:27.982Z,87.10
2019-05-25T02:07:57.360Z,87.20
2019-05-25T02:10:26.722Z,87.20
2019-05-25T02:12:56.109Z,87.30
2019-05-25T02:15:25.493Z,87.40
2019-05-25T02:17:54.852Z,87.40
2019-05-25T02:20:24.248Z,87.50
2019-05-25T02:22:53.630Z,87.70
2019-05-25T02:25:22.986Z,87.80
2019-05-25T02:27:52.366Z,87.70
2019-05-25T02:30:23.756Z,87.60
2019-05-25T02:32:53.124Z,87.60
2019-05-25T02:35:26.878Z,87.50
2019-05-25T02:37:57.288Z,87.40
2019-05-25T02:40:26.652Z,87.30
2019-05-25T02:42:56.025Z,87.30
2019-05-25T02:45:25.407Z,87.30
2019-05-25T02:47:55.737Z,87.40
2019-05-25T02:50:25.286Z,87.30
2019-05-25T02:52:54.676Z,87.30
2019-05-25T02:55:33.899Z,87.50
2019-05-25T02:57:55.075Z,87.50
2019-05-25T03:00:34.414Z,87.40
2019-05-25T03:03:04.031Z,87.30
2019-05-25T03:05:33.387Z,87.20
2019-05-25T03:08:02.773Z,87.30
2019-05-25T03:10:32.420Z,87.60
2019-05-25T03:13:02.613Z,87.40
2019-05-25T03:15:31.989Z,87.60
2019-05-25T03:18:01.374Z,87.70
2019-05-25T03:20:30.739Z,87.90
2019-05-25T03:23:00.128Z,88.20
2019-05-25T03:25:29.525Z,88.30
2019-05-25T03:27:58.877Z,88.30
2019-05-25T03:30:33.132Z,88.30
2019-05-25T03:33:03.470Z,88.40
2019-05-25T03:35:32.842Z,88.40
2019-05-25T03:38:02.231Z,88.40
2019-05-25T03:40:32.692Z,88.50
2019-05-25T03:43:02.056Z,88.40
2019-05-25T03:45:31.441Z,88.80
2019-05-25T03:48:00.821Z,88.20
2019-05-25T03:50:30.186Z,87.90
2019-05-25T03:52:59.622Z,87.80
2019-05-25T03:55:29.055Z,87.60
2019-05-25T03:57:59.162Z,88.50
2019-05-25T04:00:33.795Z,87.70
2019-05-25T04:03:03.166Z,87.60
2019-05-25T04:05:32.556Z,87.60
2019-05-25T04:08:01.934Z,87.70
2019-05-25T04:10:31.311Z,87.70
2019-05-25T04:13:00.689Z,87.70
2019-05-25T04:15:30.125Z,87.70
2019-05-25T04:17:59.468Z,87.60
2019-05-25T04:20:29.918Z,87.40
2019-05-25T04:22:59.300Z,87.40
2019-05-25T04:25:28.751Z,87.40
2019-05-25T04:27:58.125Z,87.60
2019-05-25T04:30:27.515Z,87.70
2019-05-25T04:32:56.894Z,87.60
2019-05-25T04:35:26.286Z,88.00
2019-05-25T04:37:55.669Z,88.00
2019-05-25T04:40:25.080Z,88.10
2019-05-25T04:42:54.417Z,88.30
2019-05-25T04:45:23.804Z,88.60
2019-05-25T04:47:53.182Z,88.60
2019-05-25T04:50:22.577Z,88.70
2019-05-25T04:52:51.958Z,88.70
2019-05-25T04:55:21.317Z,88.70
2019-05-25T04:57:50.704Z,88.50
2019-05-25T05:00:20.093Z,88.40
2019-05-25T05:02:49.442Z,88.60
2019-05-25T05:05:18.825Z,88.60
2019-05-25T05:07:48.215Z,88.60
2019-05-25T05:10:17.679Z,88.40
2019-05-25T05:12:47.054Z,88.40
2019-05-25T05:15:16.413Z,88.20
2019-05-25T05:17:45.805Z,88.20
2019-05-25T05:20:15.618Z,87.80
2019-05-25T05:22:45.002Z,87.60
2019-05-25T05:25:14.441Z,86.40
2019-05-25T05:27:43.911Z,84.60
2019-05-25T05:30:13.293Z,83.20
2019-05-25T05:32:42.990Z,82.70
2019-05-25T05:35:12.583Z,82.00
2019-05-25T05:37:41.959Z,81.70
2019-05-25T05:40:11.338Z,80.40
2019-05-25T05:42:41.381Z,79.80
2019-05-25T05:45:13.694Z,79.10
2019-05-25T05:47:43.762Z,78.20
2019-05-25T05:50:13.270Z,77.70
2019-05-25T05:52:44.870Z,77.70
2019-05-25T05:55:38.713Z,77.00
2019-05-25T05:58:07.890Z,76.30
2019-05-25T06:00:37.265Z,75.70
2019-05-25T06:03:06.655Z,75.30
2019-05-25T06:05:36.056Z,74.90
2019-05-25T06:08:05.465Z,74.40
2019-05-25T06:10:35.098Z,74.50
2019-05-25T06:13:04.539Z,74.70
2019-05-25T06:15:34.029Z,74.60
2019-05-25T06:18:03.636Z,74.30
2019-05-25T06:20:34.094Z,73.70
2019-05-25T06:23:07.288Z,73.20
2019-05-25T06:25:50.473Z,73.20
2019-05-25T06:28:22.261Z,73.10
2019-05-25T06:30:49.756Z,72.60
2019-05-25T06:33:19.149Z,72.60
2019-05-25T06:35:48.594Z,72.60
2019-05-25T06:38:17.977Z,72.20
2019-05-25T06:40:47.516Z,72.20
2019-05-25T06:43:16.903Z,72.40
2019-05-25T06:45:46.290Z,72.50
2019-05-25T06:48:15.754Z,72.60
2019-05-25T06:50:45.137Z,72.50
2019-05-25T06:53:14.515Z,72.40
2019-05-25T06:55:44.469Z,72.40
2019-05-25T06:58:13.986Z,72.10
2019-05-25T07:00:44.220Z,71.90
2019-05-25T07:03:13.625Z,71.30
2019-05-25T07:05:42.993Z,71.30
2019-05-25T07:08:12.677Z,71.90
2019-05-25T07:10:44.943Z,72.00
2019-05-25T07:13:14.702Z,71.90
2019-05-25T07:15:45.747Z,71.40
2019-05-25T07:18:15.441Z,71.00
2019-05-25T07:20:46.915Z,71.40
2019-05-25T07:23:16.736Z,71.80
2019-05-25T07:25:46.153Z,71.50
2019-05-25T07:28:15.542Z,71.90
2019-05-25T07:30:46.795Z,71.50
2019-05-25T07:33:16.085Z,71.10
2019-05-25T07:35:45.468Z,71.10
2019-05-25T07:38:14.945Z,71.00
2019-05-25T07:40:44.560Z,71.10
2019-05-25T07:43:14.106Z,71.00
2019-05-25T07:45:43.790Z,71.50
2019-05-25T07:48:13.776Z,71.70
2019-05-25T07:50:43.375Z,72.00
2019-05-25T07:53:12.860Z,72.00
2019-05-25T07:55:42.687Z,71.70
2019-05-25T07:58:17.493Z,71.70
2019-05-25T08:00:43.287Z,71.60
2019-05-25T08:03:30.031Z,73.00
2019-05-25T08:06:01.707Z,72.60
2019-05-25T08:08:32.464Z,72.50
2019-05-25T08:11:01.919Z,72.30
2019-05-25T08:13:32.906Z,72.50
2019-05-25T08:16:02.334Z,73.00
2019-05-25T08:18:31.786Z,72.20
2019-05-25T08:21:01.313Z,72.00
2019-05-25T08:23:30.831Z,71.00
2019-05-25T08:26:00.214Z,70.30
2019-05-25T08:28:32.586Z,70.50
2019-05-25T08:31:01.519Z,70.70
2019-05-25T08:33:30.461Z,70.60
2019-05-25T08:35:59.765Z,70.30
2019-05-25T08:38:29.277Z,70.40
2019-05-25T08:40:58.708Z,69.60
2019-05-25T08:43:28.094Z,69.10
2019-05-25T08:45:57.469Z,67.10
2019-05-25T08:48:26.934Z,65.50
2019-05-25T08:50:59.424Z,63.40
2019-05-25T08:53:40.597Z,63.30
2019-05-25T08:55:58.495Z,63.90
2019-05-25T08:58:27.853Z,62.50
2019-05-25T09:00:57.266Z,60.80
2019-05-25T09:03:28.213Z,60.60
2019-05-25T09:05:59.199Z,59.00
2019-05-25T09:08:28.713Z,58.80
2019-05-25T09:10:58.241Z,58.80
2019-05-25T09:13:27.629Z,58.40
2019-05-25T09:15:57.114Z,57.80
2019-05-25T09:18:26.661Z,57.20
2019-05-25T09:20:56.419Z,57.40
2019-05-25T09:23:25.909Z,58.40
2019-05-25T09:25:55.433Z,59.20
2019-05-25T09:28:24.865Z,60.00
2019-05-25T09:30:54.324Z,58.60
2019-05-25T09:33:23.923Z,58.00
2019-05-25T09:35:53.318Z,57.80
2019-05-25T09:38:22.695Z,58.10
2019-05-25T09:40:53.151Z,58.10
2019-05-25T09:43:22.544Z,59.10
2019-05-25T09:45:51.912Z,59.50
2019-05-25T09:48:21.504Z,58.10
2019-05-25T09:50:51.321Z,58.00
2019-05-25T09:53:22.363Z,58.40
2019-05-25T09:55:51.983Z,59.40
2019-05-25T09:58:21.458Z,58.10
2019-05-25T10:00:50.838Z,57.30
2019-05-25T10:03:20.291Z,57.00
2019-05-25T10:05:49.680Z,56.80
2019-05-25T10:08:19.260Z,56.90
2019-05-25T10:10:48.778Z,57.80
2019-05-25T10:13:18.159Z,58.70
2019-05-25T10:15:47.548Z,57.50
2019-05-25T10:18:16.957Z,56.70
2019-05-25T10:20:47.898Z,56.60
2019-05-25T10:23:20.237Z,56.70
2019-05-25T10:25:49.678Z,56.80
2019-05-25T10:28:19.086Z,57.20
2019-05-25T10:31:03.925Z,56.90
2019-05-25T10:33:24.372Z,56.80
2019-05-25T10:35:53.201Z,56.80
2019-05-25T10:38:22.767Z,56.50
2019-05-25T10:40:52.146Z,55.80
2019-05-25T10:43:21.648Z,56.10
2019-05-25T10:45:51.038Z,55.60
2019-05-25T10:48:20.563Z,56.00
2019-05-25T10:50:50.184Z,55.70
2019-05-25T10:53:19.878Z,54.90
2019-05-25T10:55:49.261Z,54.80
2019-05-25T10:58:18.627Z,56.20
2019-05-25T11:00:48.258Z,55.40
2019-05-25T11:03:17.643Z,53.60
2019-05-25T11:05:46.983Z,53.80
2019-05-25T11:08:16.364Z,53.60
2019-05-25T11:10:45.744Z,53.60
2019-05-25T11:13:15.165Z,52.40
2019-05-25T11:15:44.541Z,52.30
2019-05-25T11:18:13.925Z,52.70
2019-05-25T11:20:43.291Z,52.50
2019-05-25T11:23:13.073Z,53.10
2019-05-25T11:25:42.531Z,53.10
2019-05-25T11:28:11.912Z,52.10
2019-05-25T11:30:41.376Z,51.90
2019-05-25T11:33:11.060Z,51.60
2019-05-25T11:35:40.506Z,52.30
2019-05-25T11:38:09.990Z,52.20
2019-05-25T11:40:39.322Z,52.10
2019-05-25T11:43:08.722Z,51.40
2019-05-25T11:45:38.125Z,51.90
2019-05-25T11:48:07.509Z,51.40
2019-05-25T11:50:37.030Z,51.60
2019-05-25T11:53:06.442Z,52.00
2019-05-25T11:55:48.056Z,51.80
2019-05-25T11:58:17.518Z,51.60
2019-05-25T12:00:47.091Z,51.30
2019-05-25T12:03:21.227Z,51.10
2019-05-25T12:05:59.565Z,50.40
2019-05-25T12:08:43.692Z,50.80
2019-05-25T12:11:18.737Z,50.70
2019-05-25T12:14:09.975Z,50.40
2019-05-25T12:16:45.235Z,49.70
2019-05-25T12:19:24.888Z,49.90
2019-05-25T12:21:58.581Z,50.20
2019-05-25T12:24:29.868Z,50.70
2019-05-25T12:27:00.882Z,51.60
2019-05-25T12:29:30.569Z,50.70
2019-05-25T12:32:04.231Z,50.10
2019-05-25T12:34:32.376Z,50.40
2019-05-25T12:37:01.946Z,49.20
2019-05-25T12:39:33.913Z,48.60
2019-05-25T12:42:03.520Z,48.30
2019-05-25T12:44:39.589Z,47.80
2019-05-25T12:47:09.058Z,47.10
2019-05-25T12:49:51.249Z,46.80
2019-05-25T12:52:11.609Z,47.70
2019-05-25T12:54:40.981Z,48.30
2019-05-25T12:57:28.950Z,49.70
2019-05-25T13:00:14.351Z,50.50
2019-05-25T13:02:32.864Z,50.30
2019-05-25T13:05:04.414Z,50.00
2019-05-25T13:07:33.890Z,50.10
2019-05-25T13:10:05.455Z,50.70
2019-05-25T13:12:35.308Z,50.50
2019-05-25T13:15:08.332Z,50.50
2019-05-25T13:17:39.496Z,50.10
2019-05-25T13:20:09.446Z,50.70
2019-05-25T13:22:39.460Z,50.90
2019-05-25T13:25:17.993Z,50.60
2019-05-25T13:27:49.058Z,50.90
2019-05-25T13:30:19.803Z,49.90
2019-05-25T13:32:50.928Z,50.80
2019-05-25T13:35:20.461Z,51.00
2019-05-25T13:37:50.539Z,51.20
2019-05-25T13:40:19.946Z,51.90
2019-05-25T13:42:49.596Z,51.30
2019-05-25T13:45:19.413Z,50.50
2019-05-25T13:47:50.597Z,49.90
2019-05-25T13:50:20.065Z,49.50
2019-05-25T13:52:49.864Z,49.40
2019-05-25T13:55:20.415Z,49.50
2019-05-25T13:57:54.547Z,50.00
2019-05-25T14:00:28.711Z,50.60
2019-05-25T14:03:09.599Z,50.80
2019-05-25T14:05:36.003Z,50.70
2019-05-25T14:08:06.905Z,51.40
2019-05-25T14:10:36.701Z,51.30
2019-05-25T14:13:11.055Z,51.20
2019-05-25T14:16:06.167Z,51.40
2019-05-25T14:18:30.368Z,51.80
2019-05-25T14:21:01.241Z,52.30
2019-05-25T14:23:31.198Z,52.80
2019-05-25T14:26:00.979Z,53.20
2019-05-25T14:28:30.770Z,53.50
2019-05-25T14:31:05.076Z,52.50
2019-05-25T14:34:08.582Z,52.40
2019-05-25T14:36:11.144Z,52.90
2019-05-25T14:41:43.211Z,52.60
2019-05-25T14:44:13.083Z,52.30
2019-05-25T14:46:42.791Z,52.70
2019-05-25T14:49:12.449Z,53.20
2019-05-25T14:51:42.205Z,53.40
2019-05-25T14:54:12.409Z,53.10
2019-05-25T14:56:43.013Z,53.60
2019-05-25T14:59:14.475Z,53.90
2019-05-25T15:02:02.091Z,54.10
2019-05-25T15:04:20.285Z,54.20
2019-05-25T15:06:54.043Z,54.60
2019-05-25T15:09:23.710Z,54.50
2019-05-25T15:11:54.106Z,54.40
2019-05-25T15:14:23.838Z,54.30
2019-05-25T15:16:53.358Z,54.70
2019-05-25T15:19:28.653Z,54.70
2019-05-25T15:22:04.632Z,54.10
2019-05-25T15:24:35.456Z,53.70
2019-05-25T15:27:04.990Z,52.50
2019-05-25T15:29:34.430Z,52.80
2019-05-25T15:32:18.804Z,53.00
2019-05-25T15:34:35.487Z,53.70
2019-05-25T15:37:16.975Z,53.00
2019-05-25T15:39:46.431Z,52.40
2019-05-25T15:42:15.955Z,52.90
2019-05-25T15:44:45.467Z,53.00
2019-05-25T15:47:17.009Z,53.40
2019-05-25T15:49:46.781Z,52.80
2019-05-25T15:52:16.383Z,53.50
2019-05-25T15:54:47.948Z,52.50
2019-05-25T15:57:25.770Z,53.10
2019-05-25T15:59:55.348Z,53.40
2019-05-25T16:02:36.356Z,53.80
2019-05-25T16:04:56.537Z,54.30
2019-05-25T16:07:26.291Z,54.40
2019-05-25T16:10:16.859Z,53.60
2019-05-25T16:12:48.066Z,53.40
2019-05-25T16:15:21.011Z,52.30
2019-05-25T16:17:50.414Z,52.00
2019-05-25T16:20:24.213Z,52.10
2019-05-25T16:22:54.002Z,52.70
2019-05-25T16:25:23.628Z,52.70
2019-05-25T16:27:53.146Z,52.60
2019-05-25T16:30:22.780Z,52.90
2019-05-25T16:33:12.369Z,52.60
2019-05-25T16:35:35.407Z,52.70
2019-05-25T16:38:05.030Z,52.50
2019-05-25T16:40:34.898Z,52.50
2019-05-25T16:43:04.559Z,52.10
2019-05-25T16:45:33.907Z,52.20
2019-05-25T16:48:03.510Z,52.20
2019-05-25T16:50:32.952Z,52.10
2019-05-25T16:53:02.485Z,52.10
2019-05-25T16:55:31.878Z,51.70
2019-05-25T16:58:01.441Z,51.80
2019-05-25T17:00:32.512Z,51.60
2019-05-25T17:03:02.096Z,51.80
2019-05-25T17:05:31.506Z,51.30
2019-05-25T17:08:00.888Z,51.10
2019-05-25T17:10:30.373Z,51.00
2019-05-25T17:12:59.982Z,50.50
2019-05-25T17:15:29.683Z,50.70
2019-05-25T17:18:04.411Z,51.10
2019-05-25T17:20:31.793Z,50.80
2019-05-25T17:23:04.645Z,50.60
2019-05-25T17:25:34.309Z,50.50
2019-05-25T17:28:04.094Z,50.50
2019-05-25T17:30:44.256Z,50.50
2019-05-25T17:33:13.811Z,50.40
2019-05-25T17:35:43.417Z,50.40
2019-05-25T17:38:12.794Z,50.60
2019-05-25T17:40:42.179Z,50.80
2019-05-25T17:43:11.605Z,50.90
2019-05-25T17:45:41.005Z,51.00
2019-05-25T17:48:10.419Z,51.10
2019-05-25T17:50:39.842Z,51.30
2019-05-25T17:53:09.234Z,51.10
2019-05-25T17:55:38.773Z,51.30
2019-05-25T17:58:08.435Z,51.50
2019-05-25T18:00:42.062Z,51.70
2019-05-25T18:03:11.416Z,52.30
2019-05-25T18:05:40.895Z,53.00
2019-05-25T18:08:10.592Z,53.30
2019-05-25T18:10:51.931Z,53.40
2019-05-25T18:13:11.801Z,53.70
2019-05-25T18:15:41.403Z,54.30
2019-05-25T18:18:15.659Z,55.20
2019-05-25T18:20:47.596Z,56.10
2019-05-25T18:23:22.729Z,56.00
2019-05-25T18:25:52.130Z,56.20
2019-05-25T18:28:21.799Z,56.90
2019-05-25T18:30:51.546Z,56.90
2019-05-25T18:33:21.377Z,58.10
2019-05-25T18:35:50.771Z,58.20
2019-05-25T18:38:21.045Z,58.10
2019-05-25T18:40:51.438Z,58.20
2019-05-25T18:43:21.025Z,58.60
2019-05-25T18:46:05.906Z,59.50
2019-05-25T18:48:25.215Z,59.50
2019-05-25T18:50:56.763Z,59.80
2019-05-25T18:53:33.183Z,59.80
2019-05-25T18:56:02.771Z,59.60
2019-05-25T18:58:33.373Z,59.90
2019-05-25T19:01:05.025Z,60.90
2019-05-25T19:03:36.292Z,61.50
2019-05-25T19:06:06.508Z,61.80
2019-05-25T19:08:36.273Z,62.10
2019-05-25T19:11:05.652Z,62.40
2019-05-25T19:13:35.442Z,63.20
2019-05-25T19:16:05.065Z,63.30
2019-05-25T19:18:34.454Z,63.50
2019-05-25T19:21:04.378Z,63.60
2019-05-25T19:23:43.708Z,64.60
2019-05-25T19:26:13.714Z,64.60
2019-05-25T19:28:47.188Z,64.20
2019-05-25T19:31:18.146Z,63.50
2019-05-25T19:33:47.748Z,62.80
2019-05-25T19:36:17.755Z,64.00
2019-05-25T19:38:48.356Z,63.30
2019-05-25T19:41:17.908Z,63.40
2019-05-25T19:43:48.018Z,63.80
2019-05-25T19:46:17.775Z,64.50
2019-05-25T19:48:49.469Z,65.20
2019-05-25T19:51:19.614Z,65.40
2019-05-25T19:53:49.138Z,66.50
2019-05-25T19:56:18.613Z,66.70
2019-05-25T19:58:48.155Z,66.80
2019-05-25T20:01:17.806Z,67.10
2019-05-25T20:03:47.596Z,67.50
2019-05-25T20:06:17.513Z,67.80
2019-05-25T20:08:50.605Z,68.20
2019-05-25T20:11:20.063Z,68.60
2019-05-25T20:13:49.821Z,68.90
2019-05-25T20:16:19.645Z,69.40
2019-05-25T20:18:49.115Z,69.60
2019-05-25T20:21:18.585Z,70.00
2019-05-25T20:23:47.991Z,70.20
2019-05-25T20:26:17.704Z,70.30
2019-05-25T20:28:50.674Z,70.50
2019-05-25T20:31:18.685Z,70.70
2019-05-25T20:33:48.121Z,71.10
2019-05-25T20:36:17.822Z,71.30
2019-05-25T20:38:48.389Z,71.70
2019-05-25T20:41:18.584Z,72.10
2019-05-25T20:43:48.065Z,72.30
2019-05-25T20:46:17.521Z,72.40
2019-05-25T20:48:46.977Z,72.70
2019-05-25T20:51:16.437Z,72.90
2019-05-25T20:53:46.268Z,73.30
2019-05-25T20:56:15.787Z,74.00
2019-05-25T20:58:45.350Z,74.00
2019-05-25T21:01:14.846Z,74.30
2019-05-25T21:03:44.361Z,74.50
2019-05-25T21:06:13.819Z,74.60
2019-05-25T21:08:43.362Z,74.70
2019-05-25T21:11:12.759Z,75.60
2019-05-25T21:13:43.620Z,74.90
2019-05-25T21:16:13.043Z,75.20
2019-05-25T21:18:42.466Z,76.10
2019-05-25T21:21:11.931Z,75.50
2019-05-25T21:23:41.343Z,75.60
2019-05-25T21:26:10.799Z,75.60
2019-05-25T21:28:42.209Z,75.90
2019-05-25T21:31:15.205Z,76.20
2019-05-25T21:33:46.331Z,76.20
2019-05-25T21:36:15.672Z,76.40
2019-05-25T21:38:45.080Z,76.60
2019-05-25T21:41:14.517Z,76.70
2019-05-25T21:43:45.609Z,76.90
2019-05-25T21:46:15.046Z,77.00
2019-05-25T21:48:46.709Z,77.00
2019-05-25T21:51:20.492Z,76.90
2019-05-25T21:53:49.889Z,77.00
2019-05-25T21:56:19.338Z,76.90
2019-05-25T21:58:48.710Z,76.80
2019-05-25T22:01:18.106Z,76.70
2019-05-25T22:03:47.623Z,76.50
2019-05-25T22:06:24.377Z,76.30
2019-05-25T22:08:52.766Z,76.20
2019-05-25T22:11:23.886Z,76.30
2019-05-25T22:13:53.313Z,76.40
2019-05-25T22:16:22.739Z,76.40
2019-05-25T22:18:52.122Z,77.00
2019-05-25T22:21:21.497Z,76.60
2019-05-25T22:23:50.885Z,76.60
2019-05-25T22:26:20.349Z,76.50
2019-05-25T22:28:49.710Z,77.50
2019-05-25T22:31:19.189Z,76.80
2019-05-25T22:33:48.547Z,77.50
2019-05-25T22:36:18.027Z,76.90
2019-05-25T22:38:47.422Z,77.00
2019-05-25T22:41:19.854Z,77.20
2019-05-25T22:43:47.813Z,77.10
2019-05-25T22:46:17.174Z,76.80
2019-05-25T22:48:46.549Z,76.60
2019-05-25T22:51:15.931Z,76.00
2019-05-25T22:53:45.317Z,75.50
2019-05-25T22:56:14.735Z,75.10
2019-05-25T22:58:44.109Z,74.90
2019-05-25T23:01:13.489Z,74.70
2019-05-25T23:03:42.937Z,74.50
2019-05-25T23:06:12.304Z,74.40
2019-05-25T23:08:41.775Z,74.30
2019-05-25T23:11:11.125Z,74.20
2019-05-25T23:13:40.546Z,74.10
2019-05-25T23:16:11.590Z,73.90
2019-05-25T23:18:40.944Z,73.80
2019-05-25T23:21:10.525Z,73.70
2019-05-25T23:23:39.928Z,73.70
2019-05-25T23:26:09.315Z,73.80
2019-05-25T23:28:38.760Z,73.70
2019-05-25T23:31:08.185Z,73.90
2019-05-25T23:33:37.576Z,74.20
2019-05-25T23:36:06.951Z,74.50
2019-05-25T23:38:36.324Z,75.00
2019-05-25T23:41:05.710Z,75.20
2019-05-25T23:43:35.080Z,75.40
2019-05-25T23:46:04.462Z,75.70
2019-05-25T23:48:33.840Z,76.10
2019-05-25T23:51:03.196Z,76.50
2019-05-25T23:53:32.607Z,76.60
2019-05-25T23:56:02.008Z,77.10
2019-05-25T23:58:31.379Z,77.20
